PABE Airport Information

Runway Information
Runway 01L Length 6400 ft width 150 ft
Elevation 125 ft Threshold 0 ft Heading 23
Runway 19R Length 6400 ft Width 150 ft
Elevation 100 ft Threshold 0 ft Heading 203
Runway 01R Length 4000 ft width 75 ft
Elevation 117 ft Threshold 0 ft Heading 23
Runway 19L Length 4000 ft Width 75 ft
Elevation 112 ft Threshold 0 ft Heading 203
Runway 12 Length 1860 ft width 75 ft
Elevation 123 ft Threshold 0 ft Heading 128
Runway 30 Length 1860 ft Width 75 ft
Elevation 124 ft Threshold 0 ft Heading 308
Airport Frequencies
Type ATIS Name ATIS Frequency 119.8 MHZ
Type CNTR Name ANCHORAGE Frequency 125.2 MHZ
Type CTAF Name CTAF/BETHE Frequency 118.7 MHZ
Type FSS Name KENAI RDO Frequency 122.65 MHZ
Type GND Name GND Frequency 121.7 MHZ
Type MISC Name TWEB Frequency 114.1 MHZ
Type OPS Name NG OPS Frequency 124.65 MHZ
Type TWR Name TWR Frequency 118.7 MHZ
Airport Navaids
Type VORTAC Name Bethel Frequency 114100 KHZ
Type NDB Name Bethel Frequency 344 KHZ
Type NDB Name Oscarville Frequency 251 KHZ
Airport Weather Information & NOTAM
ADDS - METARS form results

(0726 UTC 20 November 2018)
Data provider http://aviationweather.gov/metar/data/
 
METAR text: PABE 200711Z 13005KT 9SM SCT018 BKN036 OVC045 M01/M01 A2955 RMK AO2 SNE09 P0000 T10061006
Conditions at: PABE (BETHEL , AK, US) observed 0711 UTC 20 November 2018
Temperature: -0.6°C (31°F)
Dewpoint: -0.6°C (31°F) [RH = 100%]
Pressure (altimeter): 29.55 inches Hg (1000.8 mb)
Winds: from the SE (130 degrees) at 6 MPH (5 knots; 2.6 m/s)
Visibility: 9 miles (14 km)
Ceiling: 3600 feet AGL
Clouds: scattered clouds at 1800 feet AGL
broken clouds at 3600 feet AGL
overcast cloud deck at 4500 feet AGL
Weather: no significant weather observed at this time

METAR text: PABE 200653Z 14004KT 7SM -SN FEW008 BKN020 OVC047 M01/M01 A2955 RMK AO2 SLP008 P0001 T10061006
Conditions at: PABE (BETHEL , AK, US) observed 0653 UTC 20 November 2018
Temperature: -0.6°C (31°F)
Dewpoint: -0.6°C (31°F) [RH = 100%]
Pressure (altimeter): 29.55 inches Hg (1000.8 mb)
[Sea-level pressure: 1000.8 mb]
Winds: from the SE (140 degrees) at 5 MPH (4 knots; 2.1 m/s)
Visibility: 7 miles (11 km)
Ceiling: 2000 feet AGL
Clouds: few clouds at 800 feet AGL
broken clouds at 2000 feet AGL
overcast cloud deck at 4700 feet AGL
Weather: -SN  (light snow)

METAR text: PABE 200646Z 15005KT 6SM -SN BR FEW008 BKN016 OVC048 M01/M01 A2955 RMK AO2 P0001 T10061006
Conditions at: PABE (BETHEL , AK, US) observed 0646 UTC 20 November 2018
Temperature: -0.6°C (31°F)
Dewpoint: -0.6°C (31°F) [RH = 100%]
Pressure (altimeter): 29.55 inches Hg (1000.8 mb)
Winds: from the SSE (150 degrees) at 6 MPH (5 knots; 2.6 m/s)
Visibility: 6 miles (10 km)
Ceiling: 1600 feet AGL
Clouds: few clouds at 800 feet AGL
broken clouds at 1600 feet AGL
overcast cloud deck at 4800 feet AGL
Weather: -SN BR  (light snow, mist)

METAR text: PABE 200628Z 16005KT 4SM -SN BR SCT006 BKN014 OVC036 M01/M01 A2956 RMK AO2 P0001 T10061006
Conditions at: PABE (BETHEL , AK, US) observed 0628 UTC 20 November 2018
Temperature: -0.6°C (31°F)
Dewpoint: -0.6°C (31°F) [RH = 100%]
Pressure (altimeter): 29.56 inches Hg (1001.1 mb)
Winds: from the SSE (160 degrees) at 6 MPH (5 knots; 2.6 m/s)
Visibility: 4 miles ( 6 km)
Ceiling: 1400 feet AGL
Clouds: scattered clouds at 600 feet AGL
broken clouds at 1400 feet AGL
overcast cloud deck at 3600 feet AGL
Weather: -SN BR  (light snow, mist)

Forecast for: PABE (BETHEL , AK, US)
Text: PABE 200535Z 2006/2106 16005KT P6SM -SHSN SCT004 BKN025
Forecast period: 0600 to 1500 UTC 20 November 2018
Forecast type: FROM: standard forecast or significant change
Winds: from the SSE (160 degrees) at 6 MPH (5 knots; 2.6 m/s)
Visibility: 6 or more miles 10+ km)
Ceiling: 2500 feet AGL
Clouds: scattered clouds at 400 feet AGL
broken clouds at 2500 feet AGL
Weather: -SHSN  (light snow showers)
Text: FM201500 19005KT 2SM BR SCT003 OVC009
Forecast period: 1500 UTC 20 November 2018 to 0600 UTC 21 November 2018
Forecast type: FROM: standard forecast or significant change
Winds: from the S (190 degrees) at 6 MPH (5 knots; 2.6 m/s)
Visibility: 2.00 miles (3.22 km)
Ceiling: 900 feet AGL
Clouds: scattered clouds at 300 feet AGL
overcast cloud deck at 900 feet AGL
Weather: BR  (mist)